Terminal Aerodrome Forecast
Issued by NWS Tulsa, OK

Home | Current Version | Previous Version | Text Only | Print | Product List | Glossary On
Versions: 1 2 3 4 5 6 7 8 9 10 11 12
000
FTUS44 KTSA 291100
TAFFSM
TAF
KFSM 291120Z 2912/3012 08013G19KT P6SM SKC
     FM291900 24009KT P6SM BKN120
     FM300000 34007KT P6SM BKN070
     FM300900 02005KT P6SM SCT150=

USA.gov is the U.S. government's official web portal to all federal, state and local government web resources and services.